sensor_id;sensor_type;location;lat;lon;timestamp;pressure;altitude;pressure_sealevel;temperature;humidity
23996;BME280;12207;50.076;8.848;2024-02-26T00:01:27;98252.25;;;5.22;100.00
23996;BME280;12207;50.076;8.848;2024-02-26T00:03:56;98245.22;;;5.28;100.00
23996;BME280;12207;50.076;8.848;2024-02-26T00:06:25;98239.47;;;5.31;100.00
23996;BME280;12207;50.076;8.848;2024-02-26T00:08:51;98241.53;;;5.29;100.00
23996;BME280;12207;50.076;8.848;2024-02-26T00:11:17;98251.72;;;5.32;100.00
23996;BME280;12207;50.076;8.848;2024-02-26T00:13:43;98246.84;;;5.29;100.00
23996;BME280;12207;50.076;8.848;2024-02-26T00:16:09;98227.22;;;5.30;100.00
23996;BME280;12207;50.076;8.848;2024-02-26T00:18:35;98236.59;;;5.32;100.00
23996;BME280;12207;50.076;8.848;2024-02-26T00:21:02;98232.09;;;5.33;100.00
23996;BME280;12207;50.076;8.848;2024-02-26T00:23:29;98231.28;;;5.32;100.00
23996;BME280;12207;50.076;8.848;2024-02-26T00:25:55;98232.44;;;5.36;100.00
23996;BME280;12207;50.076;8.848;2024-02-26T00:28:21;98222.28;;;5.33;100.00
23996;BME280;12207;50.076;8.848;2024-02-26T00:30:47;98222.66;;;5.37;100.00
23996;BME280;12207;50.076;8.848;2024-02-26T00:33:16;98224.72;;;5.35;100.00
23996;BME280;12207;50.076;8.848;2024-02-26T00:35:43;98227.59;;;5.33;100.00
23996;BME280;12207;50.076;8.848;2024-02-26T00:38:09;98232.69;;;5.35;100.00
23996;BME280;12207;50.076;8.848;2024-02-26T00:40:35;98225.59;;;5.29;100.00
23996;BME280;12207;50.076;8.848;2024-02-26T00:43:01;98222.94;;;5.29;100.00
23996;BME280;12207;50.076;8.848;2024-02-26T00:45:27;98210.13;;;5.26;100.00
23996;BME280;12207;50.076;8.848;2024-02-26T00:47:54;98204.94;;;5.19;100.00
23996;BME280;12207;50.076;8.848;2024-02-26T00:50:20;98205.75;;;5.20;100.00
23996;BME280;12207;50.076;8.848;2024-02-26T00:52:46;98216.38;;;5.20;100.00
23996;BME280;12207;50.076;8.848;2024-02-26T00:55:12;98211.59;;;5.22;100.00
23996;BME280;12207;50.076;8.848;2024-02-26T00:57:38;98206.44;;;5.27;100.00
23996;BME280;12207;50.076;8.848;2024-02-26T01:00:06;98207.03;;;5.29;100.00
23996;BME280;12207;50.076;8.848;2024-02-26T01:02:34;98195.00;;;5.26;100.00
23996;BME280;12207;50.076;8.848;2024-02-26T01:05:01;98179.66;;;5.17;100.00
23996;BME280;12207;50.076;8.848;2024-02-26T01:07:27;98170.59;;;5.06;100.00
23996;BME280;12207;50.076;8.848;2024-02-26T01:09:53;98183.91;;;5.18;100.00
23996;BME280;12207;50.076;8.848;2024-02-26T01:12:19;98185.47;;;5.37;100.00
23996;BME280;12207;50.076;8.848;2024-02-26T01:14:45;98196.78;;;5.44;100.00
23996;BME280;12207;50.076;8.848;2024-02-26T01:17:11;98183.91;;;5.59;100.00
23996;BME280;12207;50.076;8.848;2024-02-26T01:19:37;98180.19;;;5.60;100.00
23996;BME280;12207;50.076;8.848;2024-02-26T01:22:03;98178.13;;;5.62;100.00
23996;BME280;12207;50.076;8.848;2024-02-26T01:24:30;98182.03;;;5.71;100.00
23996;BME280;12207;50.076;8.848;2024-02-26T01:26:59;98191.31;;;5.80;99.76
23996;BME280;12207;50.076;8.848;2024-02-26T01:29:25;98196.31;;;5.89;99.88
23996;BME280;12207;50.076;8.848;2024-02-26T01:31:51;98202.78;;;5.93;97.46
23996;BME280;12207;50.076;8.848;2024-02-26T01:34:17;98200.34;;;6.03;97.17
23996;BME280;12207;50.076;8.848;2024-02-26T01:36:44;98195.28;;;6.13;97.19
23996;BME280;12207;50.076;8.848;2024-02-26T01:39:10;98221.28;;;6.23;95.51
23996;BME280;12207;50.076;8.848;2024-02-26T01:41:41;98209.38;;;6.25;95.03
23996;BME280;12207;50.076;8.848;2024-02-26T01:44:07;98198.50;;;6.27;93.42
23996;BME280;12207;50.076;8.848;2024-02-26T01:46:34;98190.28;;;6.28;94.15
23996;BME280;12207;50.076;8.848;2024-02-26T01:49:02;98179.50;;;6.46;94.28
23996;BME280;12207;50.076;8.848;2024-02-26T01:51:29;98182.16;;;6.46;95.03
23996;BME280;12207;50.076;8.848;2024-02-26T01:53:57;98214.44;;;6.38;96.25
23996;BME280;12207;50.076;8.848;2024-02-26T01:56:24;98201.03;;;6.33;96.92
23996;BME280;12207;50.076;8.848;2024-02-26T01:58:54;98201.28;;;6.32;96.96
23996;BME280;12207;50.076;8.848;2024-02-26T02:01:21;98198.50;;;6.27;96.57
23996;BME280;12207;50.076;8.848;2024-02-26T02:03:48;98199.88;;;6.29;97.57
23996;BME280;12207;50.076;8.848;2024-02-26T02:06:14;98184.72;;;6.30;97.46
23996;BME280;12207;50.076;8.848;2024-02-26T02:08:41;98168.31;;;6.21;96.29
23996;BME280;12207;50.076;8.848;2024-02-26T02:11:08;98169.72;;;6.24;97.30
23996;BME280;12207;50.076;8.848;2024-02-26T02:13:37;98184.38;;;6.26;97.75
23996;BME280;12207;50.076;8.848;2024-02-26T02:16:07;98179.66;;;6.28;98.17
23996;BME280;12207;50.076;8.848;2024-02-26T02:18:33;98179.66;;;6.16;97.70
23996;BME280;12207;50.076;8.848;2024-02-26T02:21:03;98206.94;;;6.24;98.09
23996;BME280;12207;50.076;8.848;2024-02-26T02:23:29;98199.88;;;6.29;96.77
23996;BME280;12207;50.076;8.848;2024-02-26T02:25:57;98194.44;;;6.24;96.44
23996;BME280;12207;50.076;8.848;2024-02-26T02:28:25;98200.13;;;6.28;96.19
23996;BME280;12207;50.076;8.848;2024-02-26T02:30:51;98195.25;;;6.36;94.30
23996;BME280;12207;50.076;8.848;2024-02-26T02:33:18;98178.34;;;6.42;92.88
23996;BME280;12207;50.076;8.848;2024-02-26T02:35:44;98194.41;;;6.47;92.71
23996;BME280;12207;50.076;8.848;2024-02-26T02:38:10;98184.47;;;6.55;94.00
23996;BME280;12207;50.076;8.848;2024-02-26T02:40:36;98169.41;;;6.60;91.17
23996;BME280;12207;50.076;8.848;2024-02-26T02:43:02;98195.88;;;6.67;92.06
23996;BME280;12207;50.076;8.848;2024-02-26T02:45:30;98220.16;;;6.82;90.37
23996;BME280;12207;50.076;8.848;2024-02-26T02:47:56;98226.69;;;6.91;89.10
23996;BME280;12207;50.076;8.848;2024-02-26T02:50:22;98216.44;;;6.83;89.19
23996;BME280;12207;50.076;8.848;2024-02-26T02:52:48;98209.50;;;6.82;90.26
23996;BME280;12207;50.076;8.848;2024-02-26T02:55:16;98219.19;;;6.88;93.21
23996;BME280;12207;50.076;8.848;2024-02-26T02:57:42;98225.81;;;6.74;96.68
23996;BME280;12207;50.076;8.848;2024-02-26T03:00:09;98226.00;;;6.56;98.38
23996;BME280;12207;50.076;8.848;2024-02-26T03:02:35;98234.19;;;6.54;97.61
23996;BME280;12207;50.076;8.848;2024-02-26T03:05:05;98231.19;;;6.50;98.07
23996;BME280;12207;50.076;8.848;2024-02-26T03:07:31;98227.72;;;6.50;97.27
23996;BME280;12207;50.076;8.848;2024-02-26T03:09:57;98224.84;;;6.52;96.77
23996;BME280;12207;50.076;8.848;2024-02-26T03:12:24;98221.13;;;6.53;97.58
23996;BME280;12207;50.076;8.848;2024-02-26T03:14:50;98216.81;;;6.63;97.24
23996;BME280;12207;50.076;8.848;2024-02-26T03:17:20;98223.31;;;6.56;97.33
23996;BME280;12207;50.076;8.848;2024-02-26T03:19:47;98208.28;;;6.49;97.29
23996;BME280;12207;50.076;8.848;2024-02-26T03:22:13;98214.88;;;6.47;97.22
23996;BME280;12207;50.076;8.848;2024-02-26T03:24:39;98229.34;;;6.51;96.29
23996;BME280;12207;50.076;8.848;2024-02-26T03:27:05;98221.47;;;6.56;95.69
23996;BME280;12207;50.076;8.848;2024-02-26T03:29:35;98225.41;;;6.54;93.61
23996;BME280;12207;50.076;8.848;2024-02-26T03:32:01;98227.03;;;6.55;93.73
23996;BME280;12207;50.076;8.848;2024-02-26T03:34:28;98223.09;;;6.57;95.52
23996;BME280;12207;50.076;8.848;2024-02-26T03:36:54;98213.25;;;6.58;95.46
23996;BME280;12207;50.076;8.848;2024-02-26T03:39:20;98220.50;;;6.62;93.18
23996;BME280;12207;50.076;8.848;2024-02-26T03:41:46;98229.41;;;6.68;91.59
23996;BME280;12207;50.076;8.848;2024-02-26T03:44:12;98224.69;;;6.70;92.93
23996;BME280;12207;50.076;8.848;2024-02-26T03:46:38;98217.84;;;6.74;92.79
23996;BME280;12207;50.076;8.848;2024-02-26T03:49:04;98222.34;;;6.73;91.54
23996;BME280;12207;50.076;8.848;2024-02-26T03:51:31;98224.56;;;6.76;92.31
23996;BME280;12207;50.076;8.848;2024-02-26T03:53:58;98232.78;;;6.75;93.79
23996;BME280;12207;50.076;8.848;2024-02-26T03:56:25;98235.44;;;6.75;96.92
23996;BME280;12207;50.076;8.848;2024-02-26T03:58:51;98241.69;;;6.69;98.00
23996;BME280;12207;50.076;8.848;2024-02-26T04:01:17;98243.78;;;6.67;97.14
23996;BME280;12207;50.076;8.848;2024-02-26T04:03:43;98240.22;;;6.61;97.50
23996;BME280;12207;50.076;8.848;2024-02-26T04:06:10;98248.09;;;6.56;94.97
23996;BME280;12207;50.076;8.848;2024-02-26T04:08:37;98250.97;;;6.55;94.09
23996;BME280;12207;50.076;8.848;2024-02-26T04:11:03;98248.19;;;6.61;95.55
23996;BME280;12207;50.076;8.848;2024-02-26T04:13:36;98241.50;;;6.59;94.16
23996;BME280;12207;50.076;8.848;2024-02-26T04:16:06;98240.91;;;6.57;93.89
23996;BME280;12207;50.076;8.848;2024-02-26T04:18:32;98239.63;;;6.59;94.17
23996;BME280;12207;50.076;8.848;2024-02-26T04:20:59;98246.00;;;6.58;93.26
23996;BME280;12207;50.076;8.848;2024-02-26T04:23:25;98242.88;;;6.61;95.00
23996;BME280;12207;50.076;8.848;2024-02-26T04:25:51;98250.06;;;6.61;94.50
23996;BME280;12207;50.076;8.848;2024-02-26T04:28:19;98249.78;;;6.62;95.08
23996;BME280;12207;50.076;8.848;2024-02-26T04:30:47;98247.25;;;6.67;94.50
23996;BME280;12207;50.076;8.848;2024-02-26T04:33:14;98244.00;;;6.65;91.98
23996;BME280;12207;50.076;8.848;2024-02-26T04:35:40;98253.13;;;6.69;92.01
23996;BME280;12207;50.076;8.848;2024-02-26T04:38:06;98255.91;;;6.74;92.06
23996;BME280;12207;50.076;8.848;2024-02-26T04:40:32;98236.72;;;6.72;91.79
23996;BME280;12207;50.076;8.848;2024-02-26T04:42:58;98256.16;;;6.73;92.19
23996;BME280;12207;50.076;8.848;2024-02-26T04:45:24;98232.19;;;6.73;92.55
23996;BME280;12207;50.076;8.848;2024-02-26T04:47:50;98243.31;;;6.70;91.90
23996;BME280;12207;50.076;8.848;2024-02-26T04:50:16;98249.44;;;6.70;92.19
23996;BME280;12207;50.076;8.848;2024-02-26T04:52:42;98251.06;;;6.71;93.24
23996;BME280;12207;50.076;8.848;2024-02-26T04:55:08;98232.19;;;6.73;92.65
23996;BME280;12207;50.076;8.848;2024-02-26T04:57:34;98245.38;;;6.68;92.20
23996;BME280;12207;50.076;8.848;2024-02-26T05:00:08;98252.31;;;6.69;93.59
23996;BME280;12207;50.076;8.848;2024-02-26T05:02:35;98261.94;;;6.70;93.79
23996;BME280;12207;50.076;8.848;2024-02-26T05:05:07;98266.69;;;6.68;93.97
23996;BME280;12207;50.076;8.848;2024-02-26T05:07:39;98266.91;;;6.66;94.55
23996;BME280;12207;50.076;8.848;2024-02-26T05:10:05;98267.50;;;6.68;94.73
23996;BME280;12207;50.076;8.848;2024-02-26T05:12:32;98274.66;;;6.68;95.32
23996;BME280;12207;50.076;8.848;2024-02-26T05:15:01;98264.25;;;6.66;94.15
23996;BME280;12207;50.076;8.848;2024-02-26T05:17:27;98262.28;;;6.62;93.95
23996;BME280;12207;50.076;8.848;2024-02-26T05:19:54;98260.19;;;6.64;95.41
23996;BME280;12207;50.076;8.848;2024-02-26T05:22:20;98263.44;;;6.66;95.98
23996;BME280;12207;50.076;8.848;2024-02-26T05:24:47;98262.28;;;6.62;94.61
23996;BME280;12207;50.076;8.848;2024-02-26T05:27:13;98263.09;;;6.62;94.33
23996;BME280;12207;50.076;8.848;2024-02-26T05:29:39;98259.31;;;6.58;94.19
23996;BME280;12207;50.076;8.848;2024-02-26T05:32:07;98263.34;;;6.61;94.40
23996;BME280;12207;50.076;8.848;2024-02-26T05:34:33;98263.44;;;6.66;94.27
23996;BME280;12207;50.076;8.848;2024-02-26T05:36:59;98267.38;;;6.63;95.02
23996;BME280;12207;50.076;8.848;2024-02-26T05:39:25;98274.09;;;6.66;96.72
23996;BME280;12207;50.076;8.848;2024-02-26T05:41:54;98267.94;;;6.65;96.59
23996;BME280;12207;50.076;8.848;2024-02-26T05:44:22;98265.53;;;6.64;94.61
23996;BME280;12207;50.076;8.848;2024-02-26T05:46:48;98261.16;;;6.58;94.19
23996;BME280;12207;50.076;8.848;2024-02-26T05:49:14;98268.91;;;6.59;93.30
23996;BME280;12207;50.076;8.848;2024-02-26T05:51:40;98278.25;;;6.62;94.67
23996;BME280;12207;50.076;8.848;2024-02-26T05:54:06;98277.13;;;6.58;92.87
23996;BME280;12207;50.076;8.848;2024-02-26T05:56:34;98282.06;;;6.66;94.21
23996;BME280;12207;50.076;8.848;2024-02-26T05:59:00;98276.66;;;6.61;93.18
23996;BME280;12207;50.076;8.848;2024-02-26T06:01:29;98281.16;;;6.60;93.37
23996;BME280;12207;50.076;8.848;2024-02-26T06:03:55;98284.38;;;6.62;94.82
23996;BME280;12207;50.076;8.848;2024-02-26T06:06:22;98278.75;;;6.59;94.31
23996;BME280;12207;50.076;8.848;2024-02-26T06:08:49;98282.44;;;6.58;95.46
23996;BME280;12207;50.076;8.848;2024-02-26T06:11:15;98287.41;;;6.54;95.60
23996;BME280;12207;50.076;8.848;2024-02-26T06:13:41;98290.66;;;6.56;95.01
23996;BME280;12207;50.076;8.848;2024-02-26T06:16:10;98290.31;;;6.53;95.57
23996;BME280;12207;50.076;8.848;2024-02-26T06:18:36;98292.38;;;6.50;95.91
23996;BME280;12207;50.076;8.848;2024-02-26T06:21:03;98286.94;;;6.45;96.40
23996;BME280;12207;50.076;8.848;2024-02-26T06:23:29;98300.13;;;6.40;98.15
23996;BME280;12207;50.076;8.848;2024-02-26T06:25:55;98301.88;;;6.35;97.39
23996;BME280;12207;50.076;8.848;2024-02-26T06:28:21;98300.03;;;6.35;96.30
23996;BME280;12207;50.076;8.848;2024-02-26T06:30:47;98305.34;;;6.35;96.66
23996;BME280;12207;50.076;8.848;2024-02-26T06:33:13;98311.94;;;6.33;96.45
23996;BME280;12207;50.076;8.848;2024-02-26T06:35:40;98320.13;;;6.31;97.29
23996;BME280;12207;50.076;8.848;2024-02-26T06:38:06;98329.16;;;6.30;97.77
23996;BME280;12207;50.076;8.848;2024-02-26T06:40:33;98331.59;;;6.32;99.25
23996;BME280;12207;50.076;8.848;2024-02-26T06:42:59;98334.03;;;6.33;100.00
23996;BME280;12207;50.076;8.848;2024-02-26T06:45:25;98338.88;;;6.36;100.00
23996;BME280;12207;50.076;8.848;2024-02-26T06:47:51;98342.69;;;6.40;100.00
23996;BME280;12207;50.076;8.848;2024-02-26T06:50:18;98342.59;;;6.35;100.00
23996;BME280;12207;50.076;8.848;2024-02-26T06:52:44;98344.31;;;6.30;100.00
23996;BME280;12207;50.076;8.848;2024-02-26T06:55:12;98347.19;;;6.28;100.00
23996;BME280;12207;50.076;8.848;2024-02-26T06:57:39;98344.75;;;6.27;100.00
23996;BME280;12207;50.076;8.848;2024-02-26T07:00:05;98355.41;;;6.27;100.00
23996;BME280;12207;50.076;8.848;2024-02-26T07:02:34;98354.94;;;6.30;100.00
23996;BME280;12207;50.076;8.848;2024-02-26T07:05:01;98355.75;;;6.30;100.00
23996;BME280;12207;50.076;8.848;2024-02-26T07:07:27;98359.91;;;6.26;100.00
23996;BME280;12207;50.076;8.848;2024-02-26T07:09:54;98361.53;;;6.27;100.00
23996;BME280;12207;50.076;8.848;2024-02-26T07:12:21;98368.47;;;6.28;100.00
23996;BME280;12207;50.076;8.848;2024-02-26T07:14:47;98366.84;;;6.27;100.00
23996;BME280;12207;50.076;8.848;2024-02-26T07:17:13;98366.16;;;6.32;100.00
23996;BME280;12207;50.076;8.848;2024-02-26T07:19:39;98370.09;;;6.29;100.00
23996;BME280;12207;50.076;8.848;2024-02-26T07:22:05;98373.91;;;6.33;100.00
23996;BME280;12207;50.076;8.848;2024-02-26T07:24:31;98373.91;;;6.33;100.00
23996;BME280;12207;50.076;8.848;2024-02-26T07:26:57;98377.75;;;6.37;100.00
23996;BME280;12207;50.076;8.848;2024-02-26T07:29:26;98379.34;;;6.38;100.00
23996;BME280;12207;50.076;8.848;2024-02-26T07:31:52;98381.44;;;6.36;100.00
23996;BME280;12207;50.076;8.848;2024-02-26T07:34:18;98384.91;;;6.37;100.00
23996;BME280;12207;50.076;8.848;2024-02-26T07:36:44;98386.41;;;6.33;100.00
23996;BME280;12207;50.076;8.848;2024-02-26T07:39:10;98385.22;;;6.29;100.00
23996;BME280;12207;50.076;8.848;2024-02-26T07:41:37;98390.91;;;6.32;100.00
23996;BME280;12207;50.076;8.848;2024-02-26T07:44:04;98394.75;;;6.36;100.00
23996;BME280;12207;50.076;8.848;2024-02-26T07:46:31;98389.97;;;6.38;100.00
23996;BME280;12207;50.076;8.848;2024-02-26T07:48:57;98392.75;;;6.43;100.00
23996;BME280;12207;50.076;8.848;2024-02-26T07:51:23;98389.28;;;6.43;100.00
23996;BME280;12207;50.076;8.848;2024-02-26T07:53:49;98391.84;;;6.49;100.00
23996;BME280;12207;50.076;8.848;2024-02-26T07:56:18;98398.09;;;6.43;100.00
23996;BME280;12207;50.076;8.848;2024-02-26T07:58:44;98402.00;;;6.41;100.00
23996;BME280;12207;50.076;8.848;2024-02-26T08:01:16;98398.91;;;6.44;100.00
23996;BME280;12207;50.076;8.848;2024-02-26T08:03:42;98401.19;;;6.40;100.00
23996;BME280;12207;50.076;8.848;2024-02-26T08:06:09;98408.50;;;6.45;100.00
23996;BME280;12207;50.076;8.848;2024-02-26T08:08:35;98408.28;;;6.46;100.00
23996;BME280;12207;50.076;8.848;2024-02-26T08:11:01;98410.47;;;6.49;100.00
23996;BME280;12207;50.076;8.848;2024-02-26T08:13:30;98415.81;;;6.49;100.00
23996;BME280;12207;50.076;8.848;2024-02-26T08:15:56;98412.81;;;6.58;100.00
23996;BME280;12207;50.076;8.848;2024-02-26T08:18:22;98416.75;;;6.55;100.00
23996;BME280;12207;50.076;8.848;2024-02-26T08:20:48;98412.91;;;6.63;100.00
23996;BME280;12207;50.076;8.848;2024-02-26T08:23:15;98416.50;;;6.68;100.00
23996;BME280;12207;50.076;8.848;2024-02-26T08:25:41;98412.59;;;6.82;100.00
23996;BME280;12207;50.076;8.848;2024-02-26T08:28:09;98406.69;;;6.92;100.00
23996;BME280;12207;50.076;8.848;2024-02-26T08:30:39;98414.09;;;6.90;100.00
23996;BME280;12207;50.076;8.848;2024-02-26T08:33:05;98415.72;;;6.91;100.00
23996;BME280;12207;50.076;8.848;2024-02-26T08:35:31;98409.22;;;6.87;100.00
23996;BME280;12207;50.076;8.848;2024-02-26T08:37:57;98414.91;;;6.91;100.00
23996;BME280;12207;50.076;8.848;2024-02-26T08:40:23;98421.63;;;6.93;100.00
23996;BME280;12207;50.076;8.848;2024-02-26T08:42:49;98419.78;;;7.05;100.00
23996;BME280;12207;50.076;8.848;2024-02-26T08:45:15;98423.56;;;7.09;100.00
23996;BME280;12207;50.076;8.848;2024-02-26T08:47:41;98431.69;;;7.14;100.00
23996;BME280;12207;50.076;8.848;2024-02-26T08:50:08;98433.41;;;7.09;100.00
23996;BME280;12207;50.076;8.848;2024-02-26T08:52:35;98428.44;;;7.12;100.00
23996;BME280;12207;50.076;8.848;2024-02-26T08:55:02;98435.31;;;7.08;100.00
23996;BME280;12207;50.076;8.848;2024-02-26T08:57:29;98426.81;;;7.11;100.00
23996;BME280;12207;50.076;8.848;2024-02-26T08:59:55;98434.47;;;7.19;100.00
23996;BME280;12207;50.076;8.848;2024-02-26T09:02:21;98438.63;;;7.27;100.00
23996;BME280;12207;50.076;8.848;2024-02-26T09:04:47;98433.75;;;7.36;100.00
23996;BME280;12207;50.076;8.848;2024-02-26T09:07:13;98440.13;;;7.35;100.00
23996;BME280;12207;50.076;8.848;2024-02-26T09:09:39;98436.31;;;7.31;100.00
23996;BME280;12207;50.076;8.848;2024-02-26T09:12:05;98440.38;;;7.22;100.00
23996;BME280;12207;50.076;8.848;2024-02-26T09:14:32;98438.97;;;7.31;100.00
23996;BME280;12207;50.076;8.848;2024-02-26T09:16:58;98441.28;;;7.39;100.00
23996;BME280;12207;50.076;8.848;2024-02-26T09:19:25;98442.53;;;7.48;100.00
23996;BME280;12207;50.076;8.848;2024-02-26T09:21:51;98441.38;;;7.44;100.00
23996;BME280;12207;50.076;8.848;2024-02-26T09:24:18;98443.28;;;7.32;100.00
23996;BME280;12207;50.076;8.848;2024-02-26T09:26:44;98437.94;;;7.32;100.00
23996;BME280;12207;50.076;8.848;2024-02-26T09:29:10;98439.25;;;7.58;100.00
23996;BME280;12207;50.076;8.848;2024-02-26T09:31:36;98449.69;;;7.59;100.00
23996;BME280;12207;50.076;8.848;2024-02-26T09:34:02;98450.53;;;7.48;100.00
23996;BME280;12207;50.076;8.848;2024-02-26T09:36:28;98458.84;;;7.63;100.00
23996;BME280;12207;50.076;8.848;2024-02-26T09:38:54;98464.63;;;7.60;100.00
23996;BME280;12207;50.076;8.848;2024-02-26T09:41:20;98462.59;;;7.50;100.00
23996;BME280;12207;50.076;8.848;2024-02-26T09:43:49;98468.81;;;7.68;100.00
23996;BME280;12207;50.076;8.848;2024-02-26T09:46:18;98472.38;;;7.73;100.00
23996;BME280;12207;50.076;8.848;2024-02-26T09:48:47;98469.84;;;7.78;100.00
23996;BME280;12207;50.076;8.848;2024-02-26T09:51:13;98463.59;;;7.61;100.00
23996;BME280;12207;50.076;8.848;2024-02-26T09:53:40;98460.13;;;7.61;100.00
23996;BME280;12207;50.076;8.848;2024-02-26T09:56:08;98462.78;;;7.72;100.00
23996;BME280;12207;50.076;8.848;2024-02-26T09:58:42;98466.81;;;7.75;100.00
23996;BME280;12207;50.076;8.848;2024-02-26T10:01:13;98466.72;;;7.70;100.00
23996;BME280;12207;50.076;8.848;2024-02-26T10:03:41;98473.03;;;7.80;100.00
23996;BME280;12207;50.076;8.848;2024-02-26T10:06:08;98462.44;;;7.69;100.00
23996;BME280;12207;50.076;8.848;2024-02-26T10:08:35;98473.44;;;7.72;100.00
23996;BME280;12207;50.076;8.848;2024-02-26T10:11:06;98475.63;;;7.75;100.00
23996;BME280;12207;50.076;8.848;2024-02-26T10:13:36;98481.03;;;7.92;100.00
23996;BME280;12207;50.076;8.848;2024-02-26T10:16:03;98483.00;;;7.85;100.00
23996;BME280;12207;50.076;8.848;2024-02-26T10:18:51;98484.50;;;7.93;100.00
23996;BME280;12207;50.076;8.848;2024-02-26T10:21:22;98486.31;;;8.04;100.00
23996;BME280;12207;50.076;8.848;2024-02-26T10:23:49;98485.94;;;8.12;100.00
23996;BME280;12207;50.076;8.848;2024-02-26T10:26:17;98476.28;;;8.23;100.00
23996;BME280;12207;50.076;8.848;2024-02-26T10:28:44;98484.06;;;8.24;100.00
23996;BME280;12207;50.076;8.848;2024-02-26T10:31:14;98486.69;;;8.36;100.00
23996;BME280;12207;50.076;8.848;2024-02-26T10:33:42;98482.75;;;8.55;100.00
23996;BME280;12207;50.076;8.848;2024-02-26T10:36:09;98486.59;;;8.76;100.00
23996;BME280;12207;50.076;8.848;2024-02-26T10:38:36;98500.16;;;8.58;100.00
23996;BME280;12207;50.076;8.848;2024-02-26T10:41:04;98502.25;;;8.55;100.00
23996;BME280;12207;50.076;8.848;2024-02-26T10:43:31;98495.50;;;8.65;100.00
23996;BME280;12207;50.076;8.848;2024-02-26T10:45:57;98495.00;;;9.01;100.00
23996;BME280;12207;50.076;8.848;2024-02-26T10:48:24;98498.72;;;9.34;100.00
23996;BME280;12207;50.076;8.848;2024-02-26T10:50:50;98496.81;;;9.51;100.00
23996;BME280;12207;50.076;8.848;2024-02-26T10:53:23;98504.56;;;9.69;100.00
23996;BME280;12207;50.076;8.848;2024-02-26T10:55:58;98515.34;;;9.96;100.00
23996;BME280;12207;50.076;8.848;2024-02-26T10:58:27;98509.84;;;10.51;100.00
23996;BME280;12207;50.076;8.848;2024-02-26T11:00:57;98521.47;;;10.35;100.00
23996;BME280;12207;50.076;8.848;2024-02-26T11:03:27;98523.34;;;10.18;100.00
23996;BME280;12207;50.076;8.848;2024-02-26T11:05:54;98521.38;;;9.86;99.54
23996;BME280;12207;50.076;8.848;2024-02-26T11:08:24;98528.69;;;10.13;100.00
23996;BME280;12207;50.076;8.848;2024-02-26T11:10:53;98527.25;;;10.27;100.00
23996;BME280;12207;50.076;8.848;2024-02-26T11:13:21;98528.53;;;10.03;98.74
23996;BME280;12207;50.076;8.848;2024-02-26T11:15:49;98522.38;;;9.80;100.00
23996;BME280;12207;50.076;8.848;2024-02-26T11:18:16;98525.69;;;9.71;100.00
23996;BME280;12207;50.076;8.848;2024-02-26T11:20:44;98528.34;;;9.87;100.00
23996;BME280;12207;50.076;8.848;2024-02-26T11:23:13;98528.09;;;9.89;100.00
23996;BME280;12207;50.076;8.848;2024-02-26T11:25:39;98526.66;;;9.81;100.00
23996;BME280;12207;50.076;8.848;2024-02-26T11:28:11;98518.22;;;10.11;100.00
23996;BME280;12207;50.076;8.848;2024-02-26T11:30:42;98525.44;;;10.33;98.23
23996;BME280;12207;50.076;8.848;2024-02-26T11:33:09;98522.91;;;10.21;96.66
23996;BME280;12207;50.076;8.848;2024-02-26T11:35:38;98531.38;;;9.96;96.81
23996;BME280;12207;50.076;8.848;2024-02-26T11:38:08;98531.56;;;10.28;97.01
23996;BME280;12207;50.076;8.848;2024-02-26T11:40:38;98529.72;;;10.55;95.31
23996;BME280;12207;50.076;8.848;2024-02-26T11:43:08;98528.53;;;10.73;95.63
23996;BME280;12207;50.076;8.848;2024-02-26T11:48:11;98530.66;;;10.98;94.26
23996;BME280;12207;50.076;8.848;2024-02-26T11:50:42;98534.16;;;10.72;93.16
23996;BME280;12207;50.076;8.848;2024-02-26T11:53:24;98539.06;;;10.53;95.03
23996;BME280;12207;50.076;8.848;2024-02-26T11:56:20;98538.31;;;10.57;95.07
23996;BME280;12207;50.076;8.848;2024-02-26T11:58:56;98542.31;;;10.82;95.64
23996;BME280;12207;50.076;8.848;2024-02-26T12:01:45;98542.25;;;10.28;92.49
23996;BME280;12207;50.076;8.848;2024-02-26T12:04:26;98527.72;;;10.46;92.96
23996;BME280;12207;50.076;8.848;2024-02-26T12:06:57;98531.38;;;10.62;92.92
23996;BME280;12207;50.076;8.848;2024-02-26T12:12:09;98527.88;;;10.88;91.29
23996;BME280;12207;50.076;8.848;2024-02-26T12:14:52;98528.09;;;10.81;94.81
23996;BME280;12207;50.076;8.848;2024-02-26T12:17:19;98524.84;;;11.11;94.14
23996;BME280;12207;50.076;8.848;2024-02-26T12:19:45;98527.81;;;11.47;93.49
23996;BME280;12207;50.076;8.848;2024-02-26T12:22:13;98525.63;;;11.44;91.95
23996;BME280;12207;50.076;8.848;2024-02-26T12:24:40;98523.34;;;11.62;90.97
23996;BME280;12207;50.076;8.848;2024-02-26T12:27:09;98535.06;;;11.88;90.23
23996;BME280;12207;50.076;8.848;2024-02-26T12:29:35;98532.28;;;12.30;87.65
23996;BME280;12207;50.076;8.848;2024-02-26T12:32:05;98539.91;;;12.64;84.90
23996;BME280;12207;50.076;8.848;2024-02-26T12:34:32;98541.22;;;12.51;85.02
23996;BME280;12207;50.076;8.848;2024-02-26T12:36:58;98540.00;;;12.12;86.73
23996;BME280;12207;50.076;8.848;2024-02-26T12:39:25;98536.56;;;11.74;90.31
23996;BME280;12207;50.076;8.848;2024-02-26T12:41:51;98546.03;;;11.08;92.41
23996;BME280;12207;50.076;8.848;2024-02-26T12:44:18;98558.06;;;10.51;93.47
23996;BME280;12207;50.076;8.848;2024-02-26T12:46:44;98567.75;;;10.57;94.67
23996;BME280;12207;50.076;8.848;2024-02-26T12:49:15;98571.81;;;10.60;93.68
23996;BME280;12207;50.076;8.848;2024-02-26T12:51:43;98568.88;;;10.88;94.93
23996;BME280;12207;50.076;8.848;2024-02-26T12:54:10;98565.09;;;10.84;91.27
23996;BME280;12207;50.076;8.848;2024-02-26T12:56:36;98553.03;;;10.87;90.39
23996;BME280;12207;50.076;8.848;2024-02-26T12:59:03;98551.44;;;11.18;91.84
23996;BME280;12207;50.076;8.848;2024-02-26T13:01:29;98551.19;;;11.19;92.34
23996;BME280;12207;50.076;8.848;2024-02-26T13:03:56;98550.97;;;10.94;90.73
23996;BME280;12207;50.076;8.848;2024-02-26T13:06:23;98567.84;;;10.68;94.59
23996;BME280;12207;50.076;8.848;2024-02-26T13:08:49;98569.28;;;10.75;93.98
23996;BME280;12207;50.076;8.848;2024-02-26T13:11:15;98566.53;;;10.97;93.93